sensor_id;sensor_type;location;lat;lon;timestamp;P1;durP1;ratioP1;P2;durP2;ratioP2
74196;SDS011;62555;52.678;4.900;2022-11-15T00:00:15;64.40;;;22.85;;
74196;SDS011;62555;52.678;4.900;2022-11-15T00:02:41;56.40;;;21.30;;
74196;SDS011;62555;52.678;4.900;2022-11-15T00:05:06;63.90;;;21.30;;
74196;SDS011;62555;52.678;4.900;2022-11-15T00:07:32;57.53;;;21.33;;
74196;SDS011;62555;52.678;4.900;2022-11-15T00:09:57;66.38;;;23.13;;
74196;SDS011;62555;52.678;4.900;2022-11-15T00:12:22;67.22;;;20.60;;
74196;SDS011;62555;52.678;4.900;2022-11-15T00:14:47;64.63;;;22.77;;
74196;SDS011;62555;52.678;4.900;2022-11-15T00:17:13;57.97;;;20.50;;
74196;SDS011;62555;52.678;4.900;2022-11-15T00:19:38;60.53;;;20.70;;
74196;SDS011;62555;52.678;4.900;2022-11-15T00:22:03;60.92;;;21.63;;
74196;SDS011;62555;52.678;4.900;2022-11-15T00:24:29;74.47;;;22.15;;
74196;SDS011;62555;52.678;4.900;2022-11-15T00:26:54;65.10;;;21.23;;
74196;SDS011;62555;52.678;4.900;2022-11-15T00:29:19;58.08;;;20.42;;
74196;SDS011;62555;52.678;4.900;2022-11-15T00:31:45;60.13;;;21.65;;
74196;SDS011;62555;52.678;4.900;2022-11-15T00:34:10;60.78;;;20.08;;
74196;SDS011;62555;52.678;4.900;2022-11-15T00:36:35;60.33;;;21.48;;
74196;SDS011;62555;52.678;4.900;2022-11-15T00:39:02;54.53;;;20.77;;
74196;SDS011;62555;52.678;4.900;2022-11-15T00:41:28;51.35;;;20.38;;
74196;SDS011;62555;52.678;4.900;2022-11-15T00:43:54;59.30;;;20.98;;
74196;SDS011;62555;52.678;4.900;2022-11-15T00:46:19;55.17;;;20.83;;
74196;SDS011;62555;52.678;4.900;2022-11-15T00:48:44;53.92;;;18.83;;
74196;SDS011;62555;52.678;4.900;2022-11-15T00:51:10;56.67;;;18.02;;
74196;SDS011;62555;52.678;4.900;2022-11-15T00:53:35;47.05;;;18.42;;
74196;SDS011;62555;52.678;4.900;2022-11-15T00:56:00;45.30;;;19.35;;
74196;SDS011;62555;52.678;4.900;2022-11-15T00:58:26;50.65;;;18.30;;
74196;SDS011;62555;52.678;4.900;2022-11-15T01:00:51;50.88;;;18.08;;
74196;SDS011;62555;52.678;4.900;2022-11-15T01:03:16;46.85;;;17.83;;
74196;SDS011;62555;52.678;4.900;2022-11-15T01:05:42;47.83;;;18.23;;
74196;SDS011;62555;52.678;4.900;2022-11-15T01:08:11;48.55;;;18.30;;
74196;SDS011;62555;52.678;4.900;2022-11-15T01:10:37;52.25;;;16.63;;
74196;SDS011;62555;52.678;4.900;2022-11-15T01:13:02;45.40;;;18.10;;
74196;SDS011;62555;52.678;4.900;2022-11-15T01:15:28;47.80;;;18.23;;
74196;SDS011;62555;52.678;4.900;2022-11-15T01:17:53;49.60;;;19.00;;
74196;SDS011;62555;52.678;4.900;2022-11-15T01:20:19;42.83;;;16.58;;
74196;SDS011;62555;52.678;4.900;2022-11-15T01:22:45;44.50;;;15.18;;
74196;SDS011;62555;52.678;4.900;2022-11-15T01:25:10;40.10;;;17.10;;
74196;SDS011;62555;52.678;4.900;2022-11-15T01:27:35;43.20;;;16.05;;
74196;SDS011;62555;52.678;4.900;2022-11-15T01:30:01;40.63;;;15.88;;
74196;SDS011;62555;52.678;4.900;2022-11-15T01:32:26;40.80;;;16.10;;
74196;SDS011;62555;52.678;4.900;2022-11-15T01:34:51;37.63;;;16.63;;
74196;SDS011;62555;52.678;4.900;2022-11-15T01:37:17;39.85;;;17.05;;
74196;SDS011;62555;52.678;4.900;2022-11-15T01:39:42;38.58;;;16.45;;
74196;SDS011;62555;52.678;4.900;2022-11-15T01:42:11;41.55;;;16.60;;
74196;SDS011;62555;52.678;4.900;2022-11-15T01:44:39;32.10;;;15.88;;
74196;SDS011;62555;52.678;4.900;2022-11-15T01:47:19;38.50;;;15.75;;
74196;SDS011;62555;52.678;4.900;2022-11-15T01:50:00;37.90;;;15.27;;
74196;SDS011;62555;52.678;4.900;2022-11-15T01:52:28;35.08;;;15.52;;
74196;SDS011;62555;52.678;4.900;2022-11-15T01:55:17;28.48;;;14.50;;
74196;SDS011;62555;52.678;4.900;2022-11-15T01:57:44;33.75;;;14.95;;
74196;SDS011;62555;52.678;4.900;2022-11-15T02:00:11;32.63;;;14.43;;
74196;SDS011;62555;52.678;4.900;2022-11-15T02:02:37;37.17;;;15.20;;
74196;SDS011;62555;52.678;4.900;2022-11-15T02:05:04;33.40;;;14.27;;
74196;SDS011;62555;52.678;4.900;2022-11-15T02:07:29;29.15;;;15.18;;
74196;SDS011;62555;52.678;4.900;2022-11-15T02:09:57;33.25;;;15.07;;
74196;SDS011;62555;52.678;4.900;2022-11-15T02:12:23;28.48;;;15.25;;
74196;SDS011;62555;52.678;4.900;2022-11-15T02:14:50;31.30;;;15.15;;
74196;SDS011;62555;52.678;4.900;2022-11-15T02:29:22;27.73;;;14.15;;
74196;SDS011;62555;52.678;4.900;2022-11-15T02:35:38;25.75;;;13.35;;
74196;SDS011;62555;52.678;4.900;2022-11-15T02:43:14;26.95;;;14.52;;
74196;SDS011;62555;52.678;4.900;2022-11-15T02:46:18;30.30;;;14.15;;
74196;SDS011;62555;52.678;4.900;2022-11-15T02:48:48;26.38;;;13.73;;
74196;SDS011;62555;52.678;4.900;2022-11-15T02:51:14;29.20;;;14.57;;
74196;SDS011;62555;52.678;4.900;2022-11-15T02:53:39;30.58;;;14.38;;
74196;SDS011;62555;52.678;4.900;2022-11-15T02:56:05;22.83;;;13.15;;
74196;SDS011;62555;52.678;4.900;2022-11-15T03:01:46;24.40;;;12.75;;
74196;SDS011;62555;52.678;4.900;2022-11-15T03:07:01;27.23;;;13.52;;
74196;SDS011;62555;52.678;4.900;2022-11-15T03:09:35;24.35;;;13.80;;
74196;SDS011;62555;52.678;4.900;2022-11-15T03:12:15;25.70;;;14.68;;
74196;SDS011;62555;52.678;4.900;2022-11-15T03:17:29;20.95;;;13.55;;
74196;SDS011;62555;52.678;4.900;2022-11-15T03:19:58;22.42;;;13.23;;
74196;SDS011;62555;52.678;4.900;2022-11-15T03:22:25;25.30;;;13.77;;
74196;SDS011;62555;52.678;4.900;2022-11-15T03:24:53;18.65;;;12.05;;
74196;SDS011;62555;52.678;4.900;2022-11-15T03:27:21;24.65;;;13.70;;
74196;SDS011;62555;52.678;4.900;2022-11-15T03:29:52;22.38;;;12.57;;
74196;SDS011;62555;52.678;4.900;2022-11-15T03:32:21;21.02;;;13.35;;
74196;SDS011;62555;52.678;4.900;2022-11-15T03:35:00;22.52;;;14.07;;
74196;SDS011;62555;52.678;4.900;2022-11-15T03:37:48;21.75;;;12.27;;
74196;SDS011;62555;52.678;4.900;2022-11-15T03:40:22;22.58;;;12.60;;
74196;SDS011;62555;52.678;4.900;2022-11-15T03:45:46;21.02;;;12.70;;
74196;SDS011;62555;52.678;4.900;2022-11-15T03:48:18;22.75;;;12.27;;
74196;SDS011;62555;52.678;4.900;2022-11-15T03:50:49;20.80;;;13.02;;
74196;SDS011;62555;52.678;4.900;2022-11-15T03:53:14;19.02;;;12.85;;
74196;SDS011;62555;52.678;4.900;2022-11-15T03:55:40;17.90;;;12.15;;
74196;SDS011;62555;52.678;4.900;2022-11-15T03:58:05;21.73;;;12.20;;
74196;SDS011;62555;52.678;4.900;2022-11-15T04:00:31;21.58;;;13.98;;
74196;SDS011;62555;52.678;4.900;2022-11-15T04:02:56;22.80;;;13.25;;
74196;SDS011;62555;52.678;4.900;2022-11-15T04:05:22;20.63;;;12.32;;
74196;SDS011;62555;52.678;4.900;2022-11-15T04:07:47;21.10;;;11.82;;
74196;SDS011;62555;52.678;4.900;2022-11-15T04:10:12;18.13;;;10.98;;
74196;SDS011;62555;52.678;4.900;2022-11-15T04:12:39;21.08;;;12.80;;
74196;SDS011;62555;52.678;4.900;2022-11-15T04:15:10;21.05;;;11.80;;
74196;SDS011;62555;52.678;4.900;2022-11-15T04:20:08;20.90;;;12.15;;
74196;SDS011;62555;52.678;4.900;2022-11-15T04:22:57;18.45;;;13.00;;
74196;SDS011;62555;52.678;4.900;2022-11-15T04:25:42;18.27;;;11.48;;
74196;SDS011;62555;52.678;4.900;2022-11-15T04:28:09;20.58;;;12.20;;
74196;SDS011;62555;52.678;4.900;2022-11-15T04:30:34;16.63;;;11.90;;
74196;SDS011;62555;52.678;4.900;2022-11-15T04:33:00;20.60;;;12.55;;
74196;SDS011;62555;52.678;4.900;2022-11-15T04:35:25;19.35;;;11.15;;
74196;SDS011;62555;52.678;4.900;2022-11-15T04:37:50;20.20;;;12.20;;
74196;SDS011;62555;52.678;4.900;2022-11-15T04:40:16;19.27;;;11.60;;
74196;SDS011;62555;52.678;4.900;2022-11-15T04:42:41;18.73;;;11.57;;
74196;SDS011;62555;52.678;4.900;2022-11-15T04:45:07;17.70;;;10.77;;
74196;SDS011;62555;52.678;4.900;2022-11-15T04:47:33;20.33;;;11.40;;
74196;SDS011;62555;52.678;4.900;2022-11-15T04:49:58;22.25;;;12.23;;
74196;SDS011;62555;52.678;4.900;2022-11-15T04:52:24;19.73;;;11.77;;
74196;SDS011;62555;52.678;4.900;2022-11-15T04:54:49;19.38;;;12.15;;
74196;SDS011;62555;52.678;4.900;2022-11-15T04:57:14;17.67;;;11.68;;
74196;SDS011;62555;52.678;4.900;2022-11-15T04:59:40;21.70;;;13.23;;
74196;SDS011;62555;52.678;4.900;2022-11-15T05:02:05;15.48;;;11.00;;
74196;SDS011;62555;52.678;4.900;2022-11-15T05:04:30;20.10;;;11.60;;
74196;SDS011;62555;52.678;4.900;2022-11-15T05:06:56;19.27;;;11.60;;
74196;SDS011;62555;52.678;4.900;2022-11-15T05:09:21;18.20;;;11.13;;
74196;SDS011;62555;52.678;4.900;2022-11-15T05:11:46;17.58;;;10.23;;
74196;SDS011;62555;52.678;4.900;2022-11-15T05:14:12;19.58;;;11.55;;
74196;SDS011;62555;52.678;4.900;2022-11-15T05:16:38;21.80;;;12.80;;
74196;SDS011;62555;52.678;4.900;2022-11-15T05:19:03;21.08;;;13.52;;
74196;SDS011;62555;52.678;4.900;2022-11-15T05:21:29;18.85;;;11.90;;
74196;SDS011;62555;52.678;4.900;2022-11-15T05:23:55;18.33;;;12.35;;
74196;SDS011;62555;52.678;4.900;2022-11-15T05:26:20;21.77;;;13.27;;
74196;SDS011;62555;52.678;4.900;2022-11-15T05:28:45;20.85;;;12.77;;
74196;SDS011;62555;52.678;4.900;2022-11-15T05:31:12;17.40;;;11.73;;
74196;SDS011;62555;52.678;4.900;2022-11-15T05:33:39;23.73;;;13.38;;
74196;SDS011;62555;52.678;4.900;2022-11-15T05:38:56;19.83;;;12.57;;
74196;SDS011;62555;52.678;4.900;2022-11-15T05:41:25;20.60;;;12.85;;
74196;SDS011;62555;52.678;4.900;2022-11-15T05:43:54;18.38;;;11.45;;
74196;SDS011;62555;52.678;4.900;2022-11-15T05:46:19;19.08;;;11.93;;
74196;SDS011;62555;52.678;4.900;2022-11-15T05:48:46;20.13;;;12.98;;
74196;SDS011;62555;52.678;4.900;2022-11-15T05:51:13;18.98;;;11.55;;
74196;SDS011;62555;52.678;4.900;2022-11-15T05:53:40;18.23;;;11.57;;
74196;SDS011;62555;52.678;4.900;2022-11-15T05:56:06;18.60;;;11.23;;
74196;SDS011;62555;52.678;4.900;2022-11-15T05:58:32;19.48;;;12.02;;
74196;SDS011;62555;52.678;4.900;2022-11-15T06:00:57;21.58;;;12.70;;
74196;SDS011;62555;52.678;4.900;2022-11-15T06:03:23;15.73;;;10.48;;
74196;SDS011;62555;52.678;4.900;2022-11-15T06:05:49;18.65;;;11.98;;
74196;SDS011;62555;52.678;4.900;2022-11-15T06:08:14;18.10;;;12.10;;
74196;SDS011;62555;52.678;4.900;2022-11-15T06:10:39;19.48;;;12.65;;
74196;SDS011;62555;52.678;4.900;2022-11-15T06:13:05;17.30;;;12.05;;
74196;SDS011;62555;52.678;4.900;2022-11-15T06:15:31;16.40;;;11.45;;
74196;SDS011;62555;52.678;4.900;2022-11-15T06:17:57;18.15;;;11.23;;
74196;SDS011;62555;52.678;4.900;2022-11-15T06:20:23;19.25;;;12.15;;
74196;SDS011;62555;52.678;4.900;2022-11-15T06:22:49;19.90;;;12.25;;
74196;SDS011;62555;52.678;4.900;2022-11-15T06:25:14;16.85;;;11.38;;
74196;SDS011;62555;52.678;4.900;2022-11-15T06:27:40;17.27;;;11.73;;
74196;SDS011;62555;52.678;4.900;2022-11-15T06:30:05;19.23;;;11.93;;
74196;SDS011;62555;52.678;4.900;2022-11-15T06:32:31;22.77;;;12.15;;
74196;SDS011;62555;52.678;4.900;2022-11-15T06:34:56;16.55;;;11.73;;
74196;SDS011;62555;52.678;4.900;2022-11-15T06:37:21;18.33;;;11.05;;
74196;SDS011;62555;52.678;4.900;2022-11-15T06:39:47;21.40;;;12.18;;
74196;SDS011;62555;52.678;4.900;2022-11-15T06:42:12;16.08;;;11.80;;
74196;SDS011;62555;52.678;4.900;2022-11-15T06:44:37;18.15;;;11.57;;
74196;SDS011;62555;52.678;4.900;2022-11-15T06:47:02;16.58;;;11.35;;
74196;SDS011;62555;52.678;4.900;2022-11-15T06:49:28;14.02;;;10.60;;
74196;SDS011;62555;52.678;4.900;2022-11-15T06:51:53;17.40;;;11.18;;
74196;SDS011;62555;52.678;4.900;2022-11-15T06:54:18;17.70;;;12.23;;
74196;SDS011;62555;52.678;4.900;2022-11-15T06:56:45;17.15;;;12.27;;
74196;SDS011;62555;52.678;4.900;2022-11-15T06:59:11;17.88;;;11.18;;
74196;SDS011;62555;52.678;4.900;2022-11-15T07:01:36;17.70;;;11.95;;
74196;SDS011;62555;52.678;4.900;2022-11-15T07:04:01;16.88;;;11.00;;
74196;SDS011;62555;52.678;4.900;2022-11-15T07:06:26;15.82;;;11.57;;
74196;SDS011;62555;52.678;4.900;2022-11-15T07:08:52;15.32;;;11.07;;
74196;SDS011;62555;52.678;4.900;2022-11-15T07:11:17;16.75;;;10.05;;
74196;SDS011;62555;52.678;4.900;2022-11-15T07:13:42;17.27;;;12.32;;
74196;SDS011;62555;52.678;4.900;2022-11-15T07:16:09;13.18;;;10.32;;
74196;SDS011;62555;52.678;4.900;2022-11-15T07:18:35;14.20;;;11.02;;
74196;SDS011;62555;52.678;4.900;2022-11-15T07:21:02;16.45;;;11.35;;
74196;SDS011;62555;52.678;4.900;2022-11-15T07:23:29;13.70;;;10.68;;
74196;SDS011;62555;52.678;4.900;2022-11-15T07:25:55;17.35;;;10.93;;
74196;SDS011;62555;52.678;4.900;2022-11-15T07:28:22;14.25;;;10.10;;
74196;SDS011;62555;52.678;4.900;2022-11-15T07:30:47;15.23;;;10.25;;
74196;SDS011;62555;52.678;4.900;2022-11-15T07:33:12;15.98;;;11.00;;
74196;SDS011;62555;52.678;4.900;2022-11-15T07:35:38;14.43;;;10.18;;
74196;SDS011;62555;52.678;4.900;2022-11-15T07:38:03;12.98;;;9.88;;
74196;SDS011;62555;52.678;4.900;2022-11-15T07:40:29;12.38;;;9.80;;
74196;SDS011;62555;52.678;4.900;2022-11-15T07:43:03;15.77;;;10.05;;
74196;SDS011;62555;52.678;4.900;2022-11-15T07:45:30;14.32;;;9.50;;
74196;SDS011;62555;52.678;4.900;2022-11-15T07:47:58;13.85;;;9.60;;
74196;SDS011;62555;52.678;4.900;2022-11-15T07:50:24;14.73;;;9.77;;
74196;SDS011;62555;52.678;4.900;2022-11-15T07:52:55;12.45;;;9.20;;
74196;SDS011;62555;52.678;4.900;2022-11-15T07:55:25;13.10;;;9.40;;
74196;SDS011;62555;52.678;4.900;2022-11-15T07:57:52;13.82;;;8.63;;
74196;SDS011;62555;52.678;4.900;2022-11-15T08:00:17;15.10;;;9.25;;
74196;SDS011;62555;52.678;4.900;2022-11-15T08:02:43;13.63;;;9.60;;
74196;SDS011;62555;52.678;4.900;2022-11-15T08:05:08;12.65;;;8.82;;
74196;SDS011;62555;52.678;4.900;2022-11-15T08:07:34;13.25;;;9.43;;
74196;SDS011;62555;52.678;4.900;2022-11-15T08:09:59;14.88;;;9.45;;
74196;SDS011;62555;52.678;4.900;2022-11-15T08:12:26;13.38;;;9.05;;
74196;SDS011;62555;52.678;4.900;2022-11-15T08:14:54;12.30;;;8.93;;
74196;SDS011;62555;52.678;4.900;2022-11-15T08:17:21;10.73;;;7.88;;
74196;SDS011;62555;52.678;4.900;2022-11-15T08:19:47;10.73;;;7.93;;
74196;SDS011;62555;52.678;4.900;2022-11-15T08:22:12;12.85;;;10.05;;
74196;SDS011;62555;52.678;4.900;2022-11-15T08:24:38;11.00;;;8.88;;
74196;SDS011;62555;52.678;4.900;2022-11-15T08:27:03;11.43;;;8.88;;
74196;SDS011;62555;52.678;4.900;2022-11-15T08:29:29;10.70;;;8.38;;
74196;SDS011;62555;52.678;4.900;2022-11-15T08:31:54;11.60;;;9.05;;
74196;SDS011;62555;52.678;4.900;2022-11-15T08:34:21;10.60;;;8.30;;
74196;SDS011;62555;52.678;4.900;2022-11-15T08:36:46;9.35;;;7.95;;
74196;SDS011;62555;52.678;4.900;2022-11-15T08:39:11;12.75;;;8.52;;
74196;SDS011;62555;52.678;4.900;2022-11-15T08:41:37;12.40;;;9.38;;
74196;SDS011;62555;52.678;4.900;2022-11-15T08:44:03;9.80;;;7.95;;
74196;SDS011;62555;52.678;4.900;2022-11-15T08:46:28;11.77;;;8.45;;
74196;SDS011;62555;52.678;4.900;2022-11-15T08:48:54;8.65;;;7.60;;
74196;SDS011;62555;52.678;4.900;2022-11-15T08:51:19;9.30;;;7.22;;
74196;SDS011;62555;52.678;4.900;2022-11-15T08:53:44;10.27;;;7.53;;
74196;SDS011;62555;52.678;4.900;2022-11-15T08:56:10;10.60;;;7.75;;
74196;SDS011;62555;52.678;4.900;2022-11-15T08:58:36;8.20;;;7.20;;
74196;SDS011;62555;52.678;4.900;2022-11-15T09:01:02;11.13;;;7.90;;
74196;SDS011;62555;52.678;4.900;2022-11-15T09:03:28;10.55;;;7.60;;
74196;SDS011;62555;52.678;4.900;2022-11-15T09:05:54;10.10;;;7.55;;
74196;SDS011;62555;52.678;4.900;2022-11-15T09:08:20;9.15;;;7.70;;
74196;SDS011;62555;52.678;4.900;2022-11-15T09:10:45;9.77;;;7.82;;
74196;SDS011;62555;52.678;4.900;2022-11-15T09:13:11;9.95;;;7.13;;
74196;SDS011;62555;52.678;4.900;2022-11-15T09:15:37;10.20;;;7.22;;
74196;SDS011;62555;52.678;4.900;2022-11-15T09:18:02;11.52;;;7.15;;
74196;SDS011;62555;52.678;4.900;2022-11-15T09:20:27;10.20;;;7.20;;
74196;SDS011;62555;52.678;4.900;2022-11-15T09:22:53;9.10;;;6.97;;
74196;SDS011;62555;52.678;4.900;2022-11-15T09:25:18;7.97;;;6.57;;
74196;SDS011;62555;52.678;4.900;2022-11-15T09:27:43;10.18;;;6.95;;
74196;SDS011;62555;52.678;4.900;2022-11-15T09:30:09;7.80;;;6.13;;
74196;SDS011;62555;52.678;4.900;2022-11-15T09:32:34;7.68;;;6.18;;
74196;SDS011;62555;52.678;4.900;2022-11-15T09:35:00;8.80;;;7.22;;
74196;SDS011;62555;52.678;4.900;2022-11-15T09:37:26;9.32;;;6.80;;
74196;SDS011;62555;52.678;4.900;2022-11-15T09:39:51;7.40;;;5.75;;
74196;SDS011;62555;52.678;4.900;2022-11-15T09:45:34;8.13;;;6.05;;
74196;SDS011;62555;52.678;4.900;2022-11-15T09:50:40;9.70;;;5.82;;
74196;SDS011;62555;52.678;4.900;2022-11-15T09:53:13;9.88;;;7.40;;
74196;SDS011;62555;52.678;4.900;2022-11-15T09:55:44;7.45;;;5.55;;
74196;SDS011;62555;52.678;4.900;2022-11-15T09:58:21;8.57;;;6.15;;
74196;SDS011;62555;52.678;4.900;2022-11-15T10:00:52;8.07;;;6.05;;
74196;SDS011;62555;52.678;4.900;2022-11-15T10:05:49;8.50;;;6.50;;
74196;SDS011;62555;52.678;4.900;2022-11-15T10:11:01;8.50;;;5.93;;
74196;SDS011;62555;52.678;4.900;2022-11-15T10:13:35;8.32;;;6.70;;
74196;SDS011;62555;52.678;4.900;2022-11-15T10:16:12;8.90;;;6.55;;
74196;SDS011;62555;52.678;4.900;2022-11-15T10:18:47;8.50;;;7.00;;
74196;SDS011;62555;52.678;4.900;2022-11-15T10:21:22;8.63;;;6.40;;
74196;SDS011;62555;52.678;4.900;2022-11-15T10:23:50;9.65;;;6.72;;
74196;SDS011;62555;52.678;4.900;2022-11-15T10:26:16;8.82;;;6.40;;
74196;SDS011;62555;52.678;4.900;2022-11-15T10:28:42;6.47;;;5.72;;
74196;SDS011;62555;52.678;4.900;2022-11-15T10:31:24;10.18;;;5.75;;
74196;SDS011;62555;52.678;4.900;2022-11-15T10:33:51;9.43;;;6.13;;
74196;SDS011;62555;52.678;4.900;2022-11-15T10:36:17;7.90;;;5.57;;
74196;SDS011;62555;52.678;4.900;2022-11-15T10:41:13;8.35;;;5.40;;
74196;SDS011;62555;52.678;4.900;2022-11-15T10:43:39;8.95;;;6.60;;
74196;SDS011;62555;52.678;4.900;2022-11-15T10:46:20;6.57;;;5.82;;
74196;SDS011;62555;52.678;4.900;2022-11-15T10:48:47;7.97;;;5.50;;
74196;SDS011;62555;52.678;4.900;2022-11-15T10:51:20;7.97;;;5.60;;
74196;SDS011;62555;52.678;4.900;2022-11-15T10:53:53;7.90;;;5.13;;
74196;SDS011;62555;52.678;4.900;2022-11-15T10:56:20;7.57;;;4.90;;
74196;SDS011;62555;52.678;4.900;2022-11-15T10:58:50;7.90;;;5.32;;
74196;SDS011;62555;52.678;4.900;2022-11-15T11:01:18;8.55;;;6.53;;
74196;SDS011;62555;52.678;4.900;2022-11-15T11:03:45;6.75;;;5.72;;
74196;SDS011;62555;52.678;4.900;2022-11-15T11:06:26;7.03;;;5.20;;
74196;SDS011;62555;52.678;4.900;2022-11-15T11:08:54;8.32;;;6.15;;
74196;SDS011;62555;52.678;4.900;2022-11-15T11:11:25;9.85;;;5.50;;
74196;SDS011;62555;52.678;4.900;2022-11-15T11:14:12;7.53;;;5.28;;
74196;SDS011;62555;52.678;4.900;2022-11-15T11:16:44;9.43;;;4.85;;
74196;SDS011;62555;52.678;4.900;2022-11-15T11:19:58;5.68;;;4.32;;
74196;SDS011;62555;52.678;4.900;2022-11-15T11:22:48;7.38;;;5.20;;
74196;SDS011;62555;52.678;4.900;2022-11-15T11:33:53;7.65;;;4.70;;
74196;SDS011;62555;52.678;4.900;2022-11-15T11:39:31;7.13;;;4.47;;
74196;SDS011;62555;52.678;4.900;2022-11-15T11:45:15;5.30;;;4.60;;
74196;SDS011;62555;52.678;4.900;2022-11-15T11:47:53;6.82;;;4.57;;
74196;SDS011;62555;52.678;4.900;2022-11-15T11:50:21;7.05;;;4.78;;
74196;SDS011;62555;52.678;4.900;2022-11-15T11:53:34;6.70;;;4.22;;
74196;SDS011;62555;52.678;4.900;2022-11-15T11:55:54;7.38;;;3.95;;
74196;SDS011;62555;52.678;4.900;2022-11-15T12:01:13;4.95;;;4.30;;
74196;SDS011;62555;52.678;4.900;2022-11-15T12:03:45;4.47;;;3.50;;
74196;SDS011;62555;52.678;4.900;2022-11-15T12:06:33;4.88;;;4.00;;
74196;SDS011;62555;52.678;4.900;2022-11-15T12:14:55;4.78;;;3.95;;
74196;SDS011;62555;52.678;4.900;2022-11-15T12:17:22;4.80;;;4.13;;
74196;SDS011;62555;52.678;4.900;2022-11-15T12:19:49;4.47;;;4.05;;
74196;SDS011;62555;52.678;4.900;2022-11-15T12:22:21;6.68;;;3.90;;
74196;SDS011;62555;52.678;4.900;2022-11-15T12:25:00;4.60;;;4.05;;
74196;SDS011;62555;52.678;4.900;2022-11-15T12:30:13;6.05;;;5.03;;
74196;SDS011;62555;52.678;4.900;2022-11-15T12:32:48;5.95;;;4.13;;
74196;SDS011;62555;52.678;4.900;2022-11-15T12:37:55;5.18;;;4.35;;
74196;SDS011;62555;52.678;4.900;2022-11-15T12:45:40;5.63;;;4.47;;
74196;SDS011;62555;52.678;4.900;2022-11-15T12:58:48;4.90;;;4.03;;
74196;SDS011;62555;52.678;4.900;2022-11-15T13:11:57;4.65;;;3.25;;
74196;SDS011;62555;52.678;4.900;2022-11-15T13:22:43;3.50;;;3.20;;
74196;SDS011;62555;52.678;4.900;2022-11-15T13:30:53;3.47;;;2.92;;
74196;SDS011;62555;52.678;4.900;2022-11-15T13:33:33;3.35;;;2.70;;
74196;SDS011;62555;52.678;4.900;2022-11-15T13:36:03;3.97;;;3.05;;
74196;SDS011;62555;52.678;4.900;2022-11-15T13:38:34;3.53;;;3.17;;
74196;SDS011;62555;52.678;4.900;2022-11-15T13:41:10;4.03;;;2.70;;
74196;SDS011;62555;52.678;4.900;2022-11-15T13:43:47;4.97;;;2.92;;
74196;SDS011;62555;52.678;4.900;2022-11-15T13:46:20;3.28;;;2.70;;
74196;SDS011;62555;52.678;4.900;2022-11-15T13:49:00;3.42;;;3.13;;
74196;SDS011;62555;52.678;4.900;2022-11-15T13:51:33;4.35;;;3.03;;
74196;SDS011;62555;52.678;4.900;2022-11-15T13:56:47;5.50;;;3.08;;
74196;SDS011;62555;52.678;4.900;2022-11-15T13:59:25;3.05;;;2.30;;
74196;SDS011;62555;52.678;4.900;2022-11-15T14:01:51;3.42;;;2.35;;
74196;SDS011;62555;52.678;4.900;2022-11-15T14:04:19;2.58;;;2.10;;
74196;SDS011;62555;52.678;4.900;2022-11-15T14:06:47;3.50;;;2.50;;
74196;SDS011;62555;52.678;4.900;2022-11-15T14:09:16;3.30;;;2.70;;
74196;SDS011;62555;52.678;4.900;2022-11-15T14:11:52;4.10;;;2.22;;
74196;SDS011;62555;52.678;4.900;2022-11-15T14:16:46;2.85;;;2.38;;
74196;SDS011;62555;52.678;4.900;2022-11-15T14:19:34;2.95;;;2.10;;
74196;SDS011;62555;52.678;4.900;2022-11-15T14:24:34;3.38;;;2.35;;
74196;SDS011;62555;52.678;4.900;2022-11-15T14:28:07;2.72;;;2.00;;
74196;SDS011;62555;52.678;4.900;2022-11-15T14:29:47;2.70;;;2.25;;
74196;SDS011;62555;52.678;4.900;2022-11-15T14:32:14;5.13;;;2.40;;
74196;SDS011;62555;52.678;4.900;2022-11-15T14:34:41;2.13;;;1.88;;
74196;SDS011;62555;52.678;4.900;2022-11-15T14:37:19;3.67;;;1.90;;
74196;SDS011;62555;52.678;4.900;2022-11-15T14:39:44;3.10;;;2.15;;
74196;SDS011;62555;52.678;4.900;2022-11-15T14:42:10;3.65;;;1.77;;
74196;SDS011;62555;52.678;4.900;2022-11-15T14:44:35;1.77;;;1.60;;
74196;SDS011;62555;52.678;4.900;2022-11-15T14:47:00;2.42;;;1.83;;
74196;SDS011;62555;52.678;4.900;2022-11-15T14:49:26;2.45;;;1.80;;
74196;SDS011;62555;52.678;4.900;2022-11-15T14:51:51;3.65;;;1.52;;
74196;SDS011;62555;52.678;4.900;2022-11-15T14:54:16;2.35;;;1.60;;
74196;SDS011;62555;52.678;4.900;2022-11-15T14:56:42;1.83;;;1.60;;
74196;SDS011;62555;52.678;4.900;2022-11-15T14:59:07;2.03;;;1.30;;
74196;SDS011;62555;52.678;4.900;2022-11-15T15:01:33;2.17;;;1.23;;
74196;SDS011;62555;52.678;4.900;2022-11-15T15:03:58;2.88;;;1.40;;
74196;SDS011;62555;52.678;4.900;2022-11-15T15:06:24;1.35;;;1.25;;
74196;SDS011;62555;52.678;4.900;2022-11-15T15:08:50;4.13;;;1.55;;
74196;SDS011;62555;52.678;4.900;2022-11-15T15:11:18;2.17;;;1.40;;
74196;SDS011;62555;52.678;4.900;2022-11-15T15:13:51;2.47;;;1.38;;
74196;SDS011;62555;52.678;4.900;2022-11-15T15:16:17;1.55;;;1.40;;
74196;SDS011;62555;52.678;4.900;2022-11-15T15:18:43;2.30;;;1.38;;
74196;SDS011;62555;52.678;4.900;2022-11-15T15:21:42;2.28;;;1.38;;
74196;SDS011;62555;52.678;4.900;2022-11-15T15:24:00;1.70;;;1.13;;
74196;SDS011;62555;52.678;4.900;2022-11-15T15:26:26;2.05;;;1.30;;
74196;SDS011;62555;52.678;4.900;2022-11-15T15:28:51;1.50;;;1.15;;
74196;SDS011;62555;52.678;4.900;2022-11-15T15:31:17;1.30;;;1.20;;
74196;SDS011;62555;52.678;4.900;2022-11-15T15:33:43;3.38;;;1.40;;
74196;SDS011;62555;52.678;4.900;2022-11-15T15:36:13;2.15;;;1.42;;
74196;SDS011;62555;52.678;4.900;2022-11-15T15:38:39;1.65;;;1.23;;
74196;SDS011;62555;52.678;4.900;2022-11-15T15:41:10;2.13;;;1.20;;
74196;SDS011;62555;52.678;4.900;2022-11-15T15:43:36;1.80;;;1.20;;
74196;SDS011;62555;52.678;4.900;2022-11-15T15:46:01;1.70;;;1.00;;
74196;SDS011;62555;52.678;4.900;2022-11-15T15:48:27;2.10;;;1.30;;
74196;SDS011;62555;52.678;4.900;2022-11-15T15:50:52;2.92;;;1.30;;
74196;SDS011;62555;52.678;4.900;2022-11-15T15:53:18;2.28;;;1.45;;
74196;SDS011;62555;52.678;4.900;2022-11-15T15:55:43;2.42;;;1.40;;
74196;SDS011;62555;52.678;4.900;2022-11-15T15:58:08;1.60;;;1.42;;
74196;SDS011;62555;52.678;4.900;2022-11-15T16:00:34;2.35;;;1.10;;
74196;SDS011;62555;52.678;4.900;2022-11-15T16:02:59;2.28;;;1.10;;
74196;SDS011;62555;52.678;4.900;2022-11-15T16:05:24;1.35;;;1.05;;
74196;SDS011;62555;52.678;4.900;2022-11-15T16:07:50;2.65;;;1.15;;
74196;SDS011;62555;52.678;4.900;2022-11-15T16:12:44;1.77;;;1.00;;
74196;SDS011;62555;52.678;4.900;2022-11-15T16:15:09;2.42;;;0.95;;
74196;SDS011;62555;52.678;4.900;2022-11-15T16:17:37;1.50;;;1.20;;
74196;SDS011;62555;52.678;4.900;2022-11-15T16:20:04;2.55;;;1.23;;
74196;SDS011;62555;52.678;4.900;2022-11-15T16:22:31;2.03;;;1.13;;
74196;SDS011;62555;52.678;4.900;2022-11-15T16:24:56;2.47;;;1.10;;
74196;SDS011;62555;52.678;4.900;2022-11-15T16:27:21;2.17;;;1.27;;
74196;SDS011;62555;52.678;4.900;2022-11-15T16:29:47;2.15;;;1.05;;
74196;SDS011;62555;52.678;4.900;2022-11-15T16:32:12;1.10;;;1.00;;
74196;SDS011;62555;52.678;4.900;2022-11-15T16:34:38;2.35;;;1.58;;
74196;SDS011;62555;52.678;4.900;2022-11-15T16:37:04;2.10;;;1.20;;
74196;SDS011;62555;52.678;4.900;2022-11-15T16:39:30;2.45;;;1.00;;
74196;SDS011;62555;52.678;4.900;2022-11-15T16:41:56;2.72;;;1.10;;
74196;SDS011;62555;52.678;4.900;2022-11-15T16:44:22;2.05;;;1.05;;
74196;SDS011;62555;52.678;4.900;2022-11-15T16:46:49;2.10;;;1.20;;
74196;SDS011;62555;52.678;4.900;2022-11-15T16:49:16;1.67;;;1.15;;